YR3TG LROP-LRIA
Flight info
| Callsign | YR3TG |
|---|---|
| Flight time | 0h 36m |
| Altitude | 29000 |
| Route | DENAK1K/08L DENAK DCT GUXVA/N0284F090 T74 ABOLO |
| Aircraft | A319/M-SDE3FGHIRWY/LB1 |
Departure
| Time | 2026-05-06 17:12 |
|---|---|
| Airport | Bucharest Henri Coandă International Airport (LROP) |
Arrival
| Time | 2026-05-06 17:49 |
|---|---|
| Airport | Iaşi International Airport (LRIA) |
| Time | Latitude | Longitude | Altitude | Speed | Heading |
|---|---|---|---|---|---|
| 2026-05-06 17:04 | 44.56887 | 26.08191 | 321 ft | 0 kts | 354° |
| 2026-05-06 17:08 | 44.56889 | 26.08191 | 321 ft | 1 kts | 354° |
| 2026-05-06 17:09 | 44.56920 | 26.08187 | 320 ft | 8 kts | 354° |
| 2026-05-06 17:09 | 44.56948 | 26.08240 | 321 ft | 10 kts | 84° |
| 2026-05-06 17:09 | 44.56952 | 26.08328 | 321 ft | 13 kts | 85° |
| 2026-05-06 17:09 | 44.57017 | 26.08388 | 320 ft | 14 kts | 354° |
| 2026-05-06 17:10 | 44.57090 | 26.08376 | 320 ft | 15 kts | 351° |
| 2026-05-06 17:10 | 44.57204 | 26.08361 | 321 ft | 13 kts | 4° |
| 2026-05-06 17:10 | 44.57233 | 26.08455 | 321 ft | 13 kts | 84° |
| 2026-05-06 17:10 | 44.57298 | 26.08494 | 319 ft | 13 kts | 354° |
| 2026-05-06 17:11 | 44.57405 | 26.08479 | 320 ft | 18 kts | 356° |
| 2026-05-06 17:11 | 44.57526 | 26.08463 | 321 ft | 15 kts | 353° |
| 2026-05-06 17:11 | 44.57630 | 26.08451 | 323 ft | 15 kts | 359° |
| 2026-05-06 17:11 | 44.57676 | 26.08562 | 323 ft | 16 kts | 84° |
| 2026-05-06 17:12 | 44.57692 | 26.08787 | 321 ft | 46 kts | 84° |
| 2026-05-06 17:12 | 44.57756 | 26.09655 | 320 ft | 127 kts | 84° |
| 2026-05-06 17:12 | 44.57873 | 26.11068 | 735 ft | 154 kts | 84° |
| 2026-05-06 17:12 | 44.58003 | 26.12618 | 1483 ft | 164 kts | 85° |
| 2026-05-06 17:13 | 44.58143 | 26.14226 | 2328 ft | 169 kts | 85° |
| 2026-05-06 17:13 | 44.58283 | 26.15946 | 2921 ft | 187 kts | 84° |
| 2026-05-06 17:13 | 44.58440 | 26.17856 | 3530 ft | 207 kts | 83° |
| 2026-05-06 17:13 | 44.58749 | 26.19912 | 4163 ft | 229 kts | 65° |
| 2026-05-06 17:14 | 44.59777 | 26.21757 | 4941 ft | 254 kts | 36° |
| 2026-05-06 17:14 | 44.61420 | 26.22874 | 5977 ft | 267 kts | 17° |
| 2026-05-06 17:14 | 44.63196 | 26.23565 | 7459 ft | 264 kts | 14° |
| 2026-05-06 17:14 | 44.64973 | 26.24255 | 8899 ft | 265 kts | 16° |
| 2026-05-06 17:15 | 44.66728 | 26.25069 | 10289 ft | 267 kts | 18° |
| 2026-05-06 17:15 | 44.68541 | 26.26001 | 11137 ft | 289 kts | 20° |
| 2026-05-06 17:15 | 44.70502 | 26.27063 | 11783 ft | 314 kts | 21° |
| 2026-05-06 17:15 | 44.72582 | 26.28215 | 12666 ft | 326 kts | 21° |
| 2026-05-06 17:16 | 44.74710 | 26.29396 | 13832 ft | 331 kts | 21° |
| 2026-05-06 17:16 | 44.76866 | 26.30590 | 14816 ft | 337 kts | 21° |
| 2026-05-06 17:16 | 44.79080 | 26.31816 | 15776 ft | 345 kts | 21° |
| 2026-05-06 17:16 | 44.81334 | 26.33061 | 16717 ft | 352 kts | 21° |
| 2026-05-06 17:17 | 44.83633 | 26.34331 | 17666 ft | 358 kts | 21° |
| 2026-05-06 17:17 | 44.85976 | 26.35628 | 18565 ft | 365 kts | 21° |
| 2026-05-06 17:17 | 44.88348 | 26.36945 | 19464 ft | 368 kts | 21° |
| 2026-05-06 17:17 | 44.90743 | 26.38275 | 20337 ft | 373 kts | 21° |
| 2026-05-06 17:18 | 44.93134 | 26.39606 | 21179 ft | 377 kts | 21° |
| 2026-05-06 17:18 | 44.95591 | 26.40975 | 22056 ft | 381 kts | 21° |
| 2026-05-06 17:18 | 44.98077 | 26.42357 | 22914 ft | 386 kts | 20° |
| 2026-05-06 17:18 | 45.00627 | 26.43603 | 23706 ft | 391 kts | 17° |
| 2026-05-06 17:19 | 45.03254 | 26.44637 | 24407 ft | 394 kts | 14° |
| 2026-05-06 17:19 | 45.05871 | 26.45545 | 25101 ft | 398 kts | 14° |
| 2026-05-06 17:19 | 45.08632 | 26.46517 | 25802 ft | 402 kts | 14° |
| 2026-05-06 17:19 | 45.11359 | 26.47482 | 26441 ft | 406 kts | 14° |
| 2026-05-06 17:20 | 45.14112 | 26.48456 | 26949 ft | 410 kts | 13° |
| 2026-05-06 17:20 | 45.16882 | 26.49437 | 27023 ft | 410 kts | 14° |
| 2026-05-06 17:20 | 45.19674 | 26.50424 | 27307 ft | 415 kts | 13° |
| 2026-05-06 17:20 | 45.22462 | 26.51412 | 28065 ft | 416 kts | 13° |
| 2026-05-06 17:21 | 45.25290 | 26.52413 | 28668 ft | 419 kts | 13° |
| 2026-05-06 17:21 | 45.28132 | 26.53422 | 28991 ft | 423 kts | 13° |
| 2026-05-06 17:21 | 45.30443 | 26.54242 | 29034 ft | 423 kts | 13° |
| 2026-05-06 17:22 | 45.36108 | 26.56260 | 29034 ft | 423 kts | 13° |
| 2026-05-06 17:22 | 45.41817 | 26.58293 | 29028 ft | 423 kts | 13° |
| 2026-05-06 17:23 | 45.47527 | 26.60331 | 29032 ft | 423 kts | 13° |
| 2026-05-06 17:23 | 45.53242 | 26.62375 | 29030 ft | 423 kts | 13° |
| 2026-05-06 17:24 | 45.58957 | 26.64423 | 29032 ft | 424 kts | 13° |
| 2026-05-06 17:24 | 45.64645 | 26.66466 | 29030 ft | 424 kts | 13° |
| 2026-05-06 17:25 | 45.70356 | 26.68521 | 29030 ft | 424 kts | 13° |
| 2026-05-06 17:25 | 45.76088 | 26.70588 | 29026 ft | 424 kts | 13° |
| 2026-05-06 17:26 | 45.81818 | 26.72660 | 29024 ft | 424 kts | 13° |
| 2026-05-06 17:26 | 45.87539 | 26.74732 | 29017 ft | 424 kts | 13° |
| 2026-05-06 17:27 | 45.93268 | 26.76812 | 29019 ft | 425 kts | 14° |
| 2026-05-06 17:27 | 45.99004 | 26.78898 | 29010 ft | 425 kts | 14° |
| 2026-05-06 17:28 | 46.04739 | 26.80990 | 29006 ft | 425 kts | 14° |
| 2026-05-06 17:28 | 46.10476 | 26.83086 | 28959 ft | 425 kts | 14° |
| 2026-05-06 17:28 | 46.13296 | 26.84118 | 28475 ft | 424 kts | 14° |
| 2026-05-06 17:29 | 46.16210 | 26.85185 | 27425 ft | 428 kts | 14° |
| 2026-05-06 17:29 | 46.19073 | 26.86233 | 26330 ft | 432 kts | 14° |
| 2026-05-06 17:29 | 46.22016 | 26.87312 | 25480 ft | 429 kts | 14° |
| 2026-05-06 17:29 | 46.24885 | 26.88365 | 24706 ft | 424 kts | 14° |
| 2026-05-06 17:30 | 46.27727 | 26.89408 | 23943 ft | 419 kts | 14° |
| 2026-05-06 17:30 | 46.30553 | 26.90446 | 23098 ft | 415 kts | 14° |
| 2026-05-06 17:30 | 46.33295 | 26.91456 | 22286 ft | 410 kts | 14° |
| 2026-05-06 17:30 | 46.36044 | 26.92472 | 21451 ft | 406 kts | 15° |
| 2026-05-06 17:31 | 46.38772 | 26.93480 | 20639 ft | 402 kts | 15° |
| 2026-05-06 17:31 | 46.41469 | 26.94478 | 19862 ft | 398 kts | 15° |
| 2026-05-06 17:31 | 46.44140 | 26.95467 | 19086 ft | 394 kts | 15° |
| 2026-05-06 17:31 | 46.46790 | 26.96450 | 18325 ft | 391 kts | 15° |
| 2026-05-06 17:32 | 46.49411 | 26.97423 | 17524 ft | 386 kts | 15° |
| 2026-05-06 17:32 | 46.51998 | 26.98385 | 16747 ft | 381 kts | 15° |
| 2026-05-06 17:32 | 46.54543 | 26.99333 | 15997 ft | 376 kts | 15° |
| 2026-05-06 17:32 | 46.57066 | 27.00275 | 15243 ft | 372 kts | 15° |
| 2026-05-06 17:33 | 46.59569 | 27.01210 | 14511 ft | 368 kts | 15° |
| 2026-05-06 17:33 | 46.62030 | 27.02130 | 13777 ft | 365 kts | 15° |
| 2026-05-06 17:33 | 46.64476 | 27.03046 | 13168 ft | 358 kts | 15° |
| 2026-05-06 17:33 | 46.66856 | 27.03937 | 12582 ft | 350 kts | 14° |
| 2026-05-06 17:34 | 46.69166 | 27.04804 | 11999 ft | 344 kts | 14° |
| 2026-05-06 17:34 | 46.71464 | 27.05665 | 11420 ft | 339 kts | 14° |
| 2026-05-06 17:34 | 46.73714 | 27.06650 | 10717 ft | 337 kts | 20° |
| 2026-05-06 17:34 | 46.75818 | 27.08150 | 10172 ft | 333 kts | 30° |
| 2026-05-06 17:35 | 46.77679 | 27.10018 | 10009 ft | 317 kts | 35° |
| 2026-05-06 17:35 | 46.79419 | 27.11846 | 9855 ft | 301 kts | 34° |
| 2026-05-06 17:35 | 46.81086 | 27.13573 | 9727 ft | 286 kts | 34° |
| 2026-05-06 17:36 | 46.84259 | 27.16852 | 9019 ft | 275 kts | 34° |
| 2026-05-06 17:36 | 46.85816 | 27.18466 | 8627 ft | 273 kts | 34° |
| 2026-05-06 17:36 | 46.87353 | 27.20064 | 8237 ft | 270 kts | 34° |
| 2026-05-06 17:36 | 46.88858 | 27.21632 | 7804 ft | 270 kts | 34° |
| 2026-05-06 17:37 | 46.90350 | 27.23184 | 7466 ft | 267 kts | 34° |
| 2026-05-06 17:37 | 46.91861 | 27.24757 | 7072 ft | 266 kts | 34° |
| 2026-05-06 17:37 | 46.93365 | 27.26324 | 6687 ft | 265 kts | 35° |
| 2026-05-06 17:37 | 46.94867 | 27.27890 | 6301 ft | 265 kts | 35° |
| 2026-05-06 17:38 | 46.96370 | 27.29459 | 5901 ft | 265 kts | 35° |
| 2026-05-06 17:38 | 46.97866 | 27.31022 | 5516 ft | 264 kts | 36° |
| 2026-05-06 17:38 | 46.99381 | 27.32490 | 5152 ft | 264 kts | 26° |
| 2026-05-06 17:38 | 47.01169 | 27.33325 | 5007 ft | 281 kts | 8° |
| 2026-05-06 17:39 | 47.03126 | 27.33484 | 4985 ft | 280 kts | 1° |
| 2026-05-06 17:39 | 47.05068 | 27.33593 | 4988 ft | 279 kts | 2° |
| 2026-05-06 17:39 | 47.07015 | 27.33715 | 4987 ft | 280 kts | 2° |
| 2026-05-06 17:39 | 47.08952 | 27.33841 | 4983 ft | 278 kts | 2° |
| 2026-05-06 17:40 | 47.10880 | 27.33967 | 4749 ft | 278 kts | 2° |
| 2026-05-06 17:40 | 47.12836 | 27.34094 | 4250 ft | 282 kts | 2° |
| 2026-05-06 17:40 | 47.14776 | 27.34219 | 4021 ft | 275 kts | 2° |
| 2026-05-06 17:40 | 47.16692 | 27.34343 | 3982 ft | 280 kts | 2° |
| 2026-05-06 17:41 | 47.18642 | 27.34469 | 3988 ft | 279 kts | 2° |
| 2026-05-06 17:41 | 47.20579 | 27.34594 | 3990 ft | 279 kts | 2° |
| 2026-05-06 17:41 | 47.22515 | 27.34719 | 3983 ft | 278 kts | 2° |
| 2026-05-06 17:41 | 47.24452 | 27.34842 | 3990 ft | 278 kts | 2° |
| 2026-05-06 17:42 | 47.26390 | 27.34964 | 3982 ft | 279 kts | 2° |
| 2026-05-06 17:42 | 47.28298 | 27.35086 | 3977 ft | 279 kts | 2° |
| 2026-05-06 17:42 | 47.30205 | 27.35479 | 3985 ft | 277 kts | 21° |
| 2026-05-06 17:42 | 47.31797 | 27.36998 | 3945 ft | 273 kts | 49° |
| 2026-05-06 17:43 | 47.32744 | 27.39370 | 3649 ft | 268 kts | 73° |
| 2026-05-06 17:43 | 47.33229 | 27.42020 | 3237 ft | 267 kts | 80° |
| 2026-05-06 17:43 | 47.33591 | 27.44657 | 2981 ft | 255 kts | 87° |
| 2026-05-06 17:43 | 47.33387 | 27.47099 | 2836 ft | 232 kts | 115° |
| 2026-05-06 17:44 | 47.32545 | 27.48979 | 2722 ft | 211 kts | 140° |
| 2026-05-06 17:44 | 47.31375 | 27.50138 | 2637 ft | 195 kts | 152° |
| 2026-05-06 17:44 | 47.30261 | 27.51122 | 2513 ft | 178 kts | 150° |
| 2026-05-06 17:44 | 47.29245 | 27.52050 | 2351 ft | 167 kts | 150° |
| 2026-05-06 17:45 | 47.28320 | 27.52899 | 2300 ft | 147 kts | 151° |
| 2026-05-06 17:45 | 47.27506 | 27.53655 | 2178 ft | 133 kts | 151° |
| 2026-05-06 17:45 | 47.26751 | 27.54351 | 2060 ft | 122 kts | 153° |
| 2026-05-06 17:45 | 47.26055 | 27.54988 | 2025 ft | 115 kts | 152° |
| 2026-05-06 17:46 | 47.25389 | 27.55633 | 2001 ft | 116 kts | 151° |
| 2026-05-06 17:46 | 47.24711 | 27.56242 | 1799 ft | 112 kts | 155° |
| 2026-05-06 17:46 | 47.24031 | 27.56822 | 1590 ft | 113 kts | 155° |
| 2026-05-06 17:46 | 47.23341 | 27.57379 | 1419 ft | 114 kts | 155° |
| 2026-05-06 17:47 | 47.22655 | 27.57940 | 1272 ft | 115 kts | 152° |
| 2026-05-06 17:47 | 47.21959 | 27.58582 | 1112 ft | 121 kts | 149° |
| 2026-05-06 17:47 | 47.21246 | 27.59246 | 988 ft | 120 kts | 150° |
| 2026-05-06 17:47 | 47.20547 | 27.59872 | 849 ft | 114 kts | 154° |
| 2026-05-06 17:48 | 47.19876 | 27.60456 | 684 ft | 110 kts | 154° |
| 2026-05-06 17:48 | 47.19204 | 27.61042 | 533 ft | 114 kts | 152° |
| 2026-05-06 17:48 | 47.18523 | 27.61650 | 404 ft | 110 kts | 149° |
| 2026-05-06 17:48 | 47.18004 | 27.62105 | 379 ft | 62 kts | 149° |
| 2026-05-06 17:49 | 47.17692 | 27.62386 | 365 ft | 41 kts | 149° |
| 2026-05-06 17:49 | 47.17523 | 27.62536 | 362 ft | 28 kts | 148° |
| 2026-05-06 17:49 | 47.17365 | 27.62630 | 362 ft | 14 kts | 207° |
| 2026-05-06 17:49 | 47.17323 | 27.62534 | 356 ft | 13 kts | 242° |
| 2026-05-06 17:50 | 47.17271 | 27.62404 | 362 ft | 15 kts | 241° |
| 2026-05-06 17:50 | 47.17279 | 27.62294 | 359 ft | 12 kts | 314° |
| 2026-05-06 17:50 | 47.17323 | 27.62240 | 363 ft | 2 kts | 291° |
| 2026-05-06 17:50 | 47.17316 | 27.62205 | 358 ft | 6 kts | 243° |
| 2026-05-06 17:51 | 47.17298 | 27.62161 | 361 ft | 0 kts | 238° |